sensor_id;sensor_type;location;lat;lon;timestamp;temperature;humidity
46458;DHT22;32155;54.076;12.092;2022-10-26T00:04:47;9.90;99.90
46458;DHT22;32155;54.076;12.092;2022-10-26T00:39:09;9.50;99.90
46458;DHT22;32155;54.076;12.092;2022-10-26T00:51:51;9.50;99.90
46458;DHT22;32155;54.076;12.092;2022-10-26T01:07:19;9.40;99.90
46458;DHT22;32155;54.076;12.092;2022-10-26T02:44:16;9.00;99.90
46458;DHT22;32155;54.076;12.092;2022-10-26T03:43:27;8.90;99.90
46458;DHT22;32155;54.076;12.092;2022-10-26T04:52:52;8.40;99.90
46458;DHT22;32155;54.076;12.092;2022-10-26T05:33:46;8.50;99.90
46458;DHT22;32155;54.076;12.092;2022-10-26T06:28:39;8.70;99.90
46458;DHT22;32155;54.076;12.092;2022-10-26T06:31:10;8.90;99.90
46458;DHT22;32155;54.076;12.092;2022-10-26T06:33:37;9.10;99.90
46458;DHT22;32155;54.076;12.092;2022-10-26T06:38:31;9.40;99.90
46458;DHT22;32155;54.076;12.092;2022-10-26T06:40:58;9.70;99.90
46458;DHT22;32155;54.076;12.092;2022-10-26T06:43:25;9.90;99.90
46458;DHT22;32155;54.076;12.092;2022-10-26T06:48:34;10.30;99.90
46458;DHT22;32155;54.076;12.092;2022-10-26T06:51:03;10.60;99.90
46458;DHT22;32155;54.076;12.092;2022-10-26T06:53:37;10.90;99.90
46458;DHT22;32155;54.076;12.092;2022-10-26T06:56:05;11.00;99.90
46458;DHT22;32155;54.076;12.092;2022-10-26T06:58:32;11.10;99.90
46458;DHT22;32155;54.076;12.092;2022-10-26T07:00:58;11.40;99.90
46458;DHT22;32155;54.076;12.092;2022-10-26T07:03:24;11.70;99.90
46458;DHT22;32155;54.076;12.092;2022-10-26T07:05:50;11.90;99.90
46458;DHT22;32155;54.076;12.092;2022-10-26T07:08:15;12.50;99.90
46458;DHT22;32155;54.076;12.092;2022-10-26T07:10:41;12.60;99.90
46458;DHT22;32155;54.076;12.092;2022-10-26T07:13:07;12.60;99.90
46458;DHT22;32155;54.076;12.092;2022-10-26T07:15:33;12.70;99.90
46458;DHT22;32155;54.076;12.092;2022-10-26T07:17:59;12.60;99.90
46458;DHT22;32155;54.076;12.092;2022-10-26T07:20:25;12.90;99.90
46458;DHT22;32155;54.076;12.092;2022-10-26T07:22:53;13.10;99.90
46458;DHT22;32155;54.076;12.092;2022-10-26T07:25:19;13.10;99.90
46458;DHT22;32155;54.076;12.092;2022-10-26T07:27:45;12.70;99.90
46458;DHT22;32155;54.076;12.092;2022-10-26T07:30:13;12.70;99.90
46458;DHT22;32155;54.076;12.092;2022-10-26T07:32:38;12.80;99.90
46458;DHT22;32155;54.076;12.092;2022-10-26T07:35:04;13.40;99.90
46458;DHT22;32155;54.076;12.092;2022-10-26T07:37:29;13.40;99.90
46458;DHT22;32155;54.076;12.092;2022-10-26T07:39:55;13.50;99.90
46458;DHT22;32155;54.076;12.092;2022-10-26T07:42:21;13.90;99.90
46458;DHT22;32155;54.076;12.092;2022-10-26T07:44:46;14.20;99.90
46458;DHT22;32155;54.076;12.092;2022-10-26T07:47:12;14.40;99.90
46458;DHT22;32155;54.076;12.092;2022-10-26T07:49:37;14.20;99.90
46458;DHT22;32155;54.076;12.092;2022-10-26T07:52:03;14.50;99.90
46458;DHT22;32155;54.076;12.092;2022-10-26T07:54:28;15.20;99.90
46458;DHT22;32155;54.076;12.092;2022-10-26T07:56:56;16.40;99.90
46458;DHT22;32155;54.076;12.092;2022-10-26T07:59:22;18.00;99.90
46458;DHT22;32155;54.076;12.092;2022-10-26T08:01:47;19.20;99.90
46458;DHT22;32155;54.076;12.092;2022-10-26T08:04:13;20.00;99.90
46458;DHT22;32155;54.076;12.092;2022-10-26T08:06:39;20.40;99.90
46458;DHT22;32155;54.076;12.092;2022-10-26T08:09:04;20.50;99.90
46458;DHT22;32155;54.076;12.092;2022-10-26T08:11:30;20.40;99.90
46458;DHT22;32155;54.076;12.092;2022-10-26T08:13:55;20.70;99.90
46458;DHT22;32155;54.076;12.092;2022-10-26T08:16:21;21.30;99.90
46458;DHT22;32155;54.076;12.092;2022-10-26T08:18:47;21.20;99.90
46458;DHT22;32155;54.076;12.092;2022-10-26T08:21:12;21.00;99.90
46458;DHT22;32155;54.076;12.092;2022-10-26T08:23:40;21.90;99.90
46458;DHT22;32155;54.076;12.092;2022-10-26T08:26:06;22.50;99.90
46458;DHT22;32155;54.076;12.092;2022-10-26T08:28:35;21.70;99.90
46458;DHT22;32155;54.076;12.092;2022-10-26T08:31:01;22.10;99.90
46458;DHT22;32155;54.076;12.092;2022-10-26T08:33:26;22.30;99.90
46458;DHT22;32155;54.076;12.092;2022-10-26T08:35:55;22.50;99.90
46458;DHT22;32155;54.076;12.092;2022-10-26T08:38:21;22.30;99.90
46458;DHT22;32155;54.076;12.092;2022-10-26T08:40:46;21.80;99.90
46458;DHT22;32155;54.076;12.092;2022-10-26T08:43:25;22.30;99.90
46458;DHT22;32155;54.076;12.092;2022-10-26T08:48:20;24.30;99.90
46458;DHT22;32155;54.076;12.092;2022-10-26T08:50:48;24.50;99.90
46458;DHT22;32155;54.076;12.092;2022-10-26T08:55:41;24.90;99.90
46458;DHT22;32155;54.076;12.092;2022-10-26T08:58:13;25.60;99.90
46458;DHT22;32155;54.076;12.092;2022-10-26T09:00:39;25.20;99.90
46458;DHT22;32155;54.076;12.092;2022-10-26T09:03:11;26.20;99.90
46458;DHT22;32155;54.076;12.092;2022-10-26T09:05:54;26.30;99.90
46458;DHT22;32155;54.076;12.092;2022-10-26T09:11:07;26.70;99.90
46458;DHT22;32155;54.076;12.092;2022-10-26T09:13:49;27.70;99.90
46458;DHT22;32155;54.076;12.092;2022-10-26T09:21:20;26.50;99.90
46458;DHT22;32155;54.076;12.092;2022-10-26T09:26:20;25.90;99.90
46458;DHT22;32155;54.076;12.092;2022-10-26T09:28:49;23.90;99.90
46458;DHT22;32155;54.076;12.092;2022-10-26T09:31:15;24.50;99.90
46458;DHT22;32155;54.076;12.092;2022-10-26T09:33:44;25.20;99.90
46458;DHT22;32155;54.076;12.092;2022-10-26T09:36:11;24.70;99.90
46458;DHT22;32155;54.076;12.092;2022-10-26T09:38:42;26.00;99.90
46458;DHT22;32155;54.076;12.092;2022-10-26T09:41:12;26.00;99.90
46458;DHT22;32155;54.076;12.092;2022-10-26T09:43:49;26.30;99.90
46458;DHT22;32155;54.076;12.092;2022-10-26T09:46:24;26.90;99.90
46458;DHT22;32155;54.076;12.092;2022-10-26T09:49:04;28.60;99.90
46458;DHT22;32155;54.076;12.092;2022-10-26T09:51:32;29.90;99.90
46458;DHT22;32155;54.076;12.092;2022-10-26T09:53:59;29.40;99.90
46458;DHT22;32155;54.076;12.092;2022-10-26T09:56:26;27.80;99.90
46458;DHT22;32155;54.076;12.092;2022-10-26T09:58:53;27.40;99.90
46458;DHT22;32155;54.076;12.092;2022-10-26T10:01:28;27.80;99.90
46458;DHT22;32155;54.076;12.092;2022-10-26T10:04:15;29.30;99.90
46458;DHT22;32155;54.076;12.092;2022-10-26T10:09:27;32.50;99.60
46458;DHT22;32155;54.076;12.092;2022-10-26T10:11:53;33.80;97.20
46458;DHT22;32155;54.076;12.092;2022-10-26T10:14:20;34.20;93.40
46458;DHT22;32155;54.076;12.092;2022-10-26T10:16:56;34.40;90.90
46458;DHT22;32155;54.076;12.092;2022-10-26T10:19:23;33.70;90.60
46458;DHT22;32155;54.076;12.092;2022-10-26T10:21:50;33.80;90.20
46458;DHT22;32155;54.076;12.092;2022-10-26T10:29:27;34.80;83.00
46458;DHT22;32155;54.076;12.092;2022-10-26T10:31:56;34.50;83.80
46458;DHT22;32155;54.076;12.092;2022-10-26T10:34:21;34.80;80.50
46458;DHT22;32155;54.076;12.092;2022-10-26T10:36:47;33.40;83.30
46458;DHT22;32155;54.076;12.092;2022-10-26T10:39:24;34.00;82.40
46458;DHT22;32155;54.076;12.092;2022-10-26T10:41:52;34.10;82.40
46458;DHT22;32155;54.076;12.092;2022-10-26T10:46:46;35.00;78.90
46458;DHT22;32155;54.076;12.092;2022-10-26T10:49:16;35.00;76.70
46458;DHT22;32155;54.076;12.092;2022-10-26T10:51:44;32.90;80.80
46458;DHT22;32155;54.076;12.092;2022-10-26T10:54:22;31.30;85.70
46458;DHT22;32155;54.076;12.092;2022-10-26T10:56:53;32.00;84.30
46458;DHT22;32155;54.076;12.092;2022-10-26T11:01:58;34.20;79.60
46458;DHT22;32155;54.076;12.092;2022-10-26T11:04:31;33.50;80.30
46458;DHT22;32155;54.076;12.092;2022-10-26T11:06:59;31.60;82.30
46458;DHT22;32155;54.076;12.092;2022-10-26T11:09:26;30.30;85.70
46458;DHT22;32155;54.076;12.092;2022-10-26T11:11:53;30.40;87.00
46458;DHT22;32155;54.076;12.092;2022-10-26T11:14:30;31.50;84.70
46458;DHT22;32155;54.076;12.092;2022-10-26T11:19:37;34.10;79.70
46458;DHT22;32155;54.076;12.092;2022-10-26T11:22:09;33.70;79.70
46458;DHT22;32155;54.076;12.092;2022-10-26T11:27:14;32.50;80.30
46458;DHT22;32155;54.076;12.092;2022-10-26T11:32:14;31.10;84.00
46458;DHT22;32155;54.076;12.092;2022-10-26T11:37:16;32.30;81.50
46458;DHT22;32155;54.076;12.092;2022-10-26T11:39:46;33.00;79.00
46458;DHT22;32155;54.076;12.092;2022-10-26T11:44:50;32.30;79.80
46458;DHT22;32155;54.076;12.092;2022-10-26T11:47:33;32.40;80.20
46458;DHT22;32155;54.076;12.092;2022-10-26T11:50:04;32.60;80.00
46458;DHT22;32155;54.076;12.092;2022-10-26T11:55:07;31.90;81.40
46458;DHT22;32155;54.076;12.092;2022-10-26T11:57:33;30.40;83.70
46458;DHT22;32155;54.076;12.092;2022-10-26T12:00:04;28.90;87.80
46458;DHT22;32155;54.076;12.092;2022-10-26T12:02:30;30.10;87.30
46458;DHT22;32155;54.076;12.092;2022-10-26T12:07:32;30.60;85.00
46458;DHT22;32155;54.076;12.092;2022-10-26T12:09:58;31.10;83.60
46458;DHT22;32155;54.076;12.092;2022-10-26T12:12:29;31.00;83.50
46458;DHT22;32155;54.076;12.092;2022-10-26T12:17:34;32.00;81.30
46458;DHT22;32155;54.076;12.092;2022-10-26T12:22:43;30.50;81.90
46458;DHT22;32155;54.076;12.092;2022-10-26T13:25:29;29.30;83.90
46458;DHT22;32155;54.076;12.092;2022-10-26T13:32:06;28.90;85.30
46458;DHT22;32155;54.076;12.092;2022-10-26T13:35:22;30.10;83.30
46458;DHT22;32155;54.076;12.092;2022-10-26T13:41:04;30.60;81.10
46458;DHT22;32155;54.076;12.092;2022-10-26T13:59:58;28.80;83.80
46458;DHT22;32155;54.076;12.092;2022-10-26T14:15:18;22.60;96.10
46458;DHT22;32155;54.076;12.092;2022-10-26T14:18:37;21.80;98.30
46458;DHT22;32155;54.076;12.092;2022-10-26T15:02:37;18.20;99.90
46458;DHT22;32155;54.076;12.092;2022-10-26T15:37:25;16.90;99.90
46458;DHT22;32155;54.076;12.092;2022-10-26T18:31:42;14.00;99.90
46458;DHT22;32155;54.076;12.092;2022-10-26T18:34:08;14.10;99.90
46458;DHT22;32155;54.076;12.092;2022-10-26T18:36:34;14.10;99.90
46458;DHT22;32155;54.076;12.092;2022-10-26T18:38:59;14.10;99.90
46458;DHT22;32155;54.076;12.092;2022-10-26T18:41:25;14.00;99.90
46458;DHT22;32155;54.076;12.092;2022-10-26T18:43:52;14.00;99.90
46458;DHT22;32155;54.076;12.092;2022-10-26T18:46:23;13.90;99.90
46458;DHT22;32155;54.076;12.092;2022-10-26T18:48:51;13.80;99.90
46458;DHT22;32155;54.076;12.092;2022-10-26T18:51:20;13.90;99.90
46458;DHT22;32155;54.076;12.092;2022-10-26T18:53:46;13.80;99.90
46458;DHT22;32155;54.076;12.092;2022-10-26T18:56:13;13.70;99.90
46458;DHT22;32155;54.076;12.092;2022-10-26T18:58:40;13.60;99.90
46458;DHT22;32155;54.076;12.092;2022-10-26T19:01:07;13.50;99.90
46458;DHT22;32155;54.076;12.092;2022-10-26T19:03:33;13.50;99.90
46458;DHT22;32155;54.076;12.092;2022-10-26T19:06:05;13.40;99.90
46458;DHT22;32155;54.076;12.092;2022-10-26T19:08:31;13.40;99.90
46458;DHT22;32155;54.076;12.092;2022-10-26T19:11:02;13.40;99.90
46458;DHT22;32155;54.076;12.092;2022-10-26T19:13:30;13.40;99.90
46458;DHT22;32155;54.076;12.092;2022-10-26T19:16:00;13.40;99.90
46458;DHT22;32155;54.076;12.092;2022-10-26T19:18:25;13.40;99.90
46458;DHT22;32155;54.076;12.092;2022-10-26T19:20:55;13.40;99.90
46458;DHT22;32155;54.076;12.092;2022-10-26T19:23:23;13.40;99.90
46458;DHT22;32155;54.076;12.092;2022-10-26T19:25:55;13.40;99.90
46458;DHT22;32155;54.076;12.092;2022-10-26T19:28:20;13.40;99.90
46458;DHT22;32155;54.076;12.092;2022-10-26T19:30:46;13.50;99.90
46458;DHT22;32155;54.076;12.092;2022-10-26T19:33:11;13.50;99.90
46458;DHT22;32155;54.076;12.092;2022-10-26T19:35:37;13.50;99.90
46458;DHT22;32155;54.076;12.092;2022-10-26T19:38:05;13.50;99.90
46458;DHT22;32155;54.076;12.092;2022-10-26T19:40:30;13.60;99.90
46458;DHT22;32155;54.076;12.092;2022-10-26T19:42:56;13.50;99.90
46458;DHT22;32155;54.076;12.092;2022-10-26T19:45:24;13.70;99.90
46458;DHT22;32155;54.076;12.092;2022-10-26T19:47:49;13.70;99.90
46458;DHT22;32155;54.076;12.092;2022-10-26T19:50:15;13.70;99.90
46458;DHT22;32155;54.076;12.092;2022-10-26T19:52:40;13.70;99.90
46458;DHT22;32155;54.076;12.092;2022-10-26T19:55:08;13.70;99.90
46458;DHT22;32155;54.076;12.092;2022-10-26T19:57:34;13.70;99.90
46458;DHT22;32155;54.076;12.092;2022-10-26T20:00:02;13.70;99.90
46458;DHT22;32155;54.076;12.092;2022-10-26T20:02:28;13.70;99.90
46458;DHT22;32155;54.076;12.092;2022-10-26T20:04:53;13.70;99.90
46458;DHT22;32155;54.076;12.092;2022-10-26T20:07:19;13.70;99.90
46458;DHT22;32155;54.076;12.092;2022-10-26T20:09:46;13.70;99.90
46458;DHT22;32155;54.076;12.092;2022-10-26T20:12:14;13.80;99.90
46458;DHT22;32155;54.076;12.092;2022-10-26T20:14:40;13.70;99.90
46458;DHT22;32155;54.076;12.092;2022-10-26T20:17:05;13.70;99.90
46458;DHT22;32155;54.076;12.092;2022-10-26T20:19:33;13.70;99.90
46458;DHT22;32155;54.076;12.092;2022-10-26T20:21:59;13.60;99.90
46458;DHT22;32155;54.076;12.092;2022-10-26T20:24:25;13.70;99.90
46458;DHT22;32155;54.076;12.092;2022-10-26T20:26:50;13.60;99.90
46458;DHT22;32155;54.076;12.092;2022-10-26T20:29:16;13.60;99.90
46458;DHT22;32155;54.076;12.092;2022-10-26T20:31:41;13.60;99.90
46458;DHT22;32155;54.076;12.092;2022-10-26T20:34:07;13.60;99.90
46458;DHT22;32155;54.076;12.092;2022-10-26T20:36:32;13.60;99.90
46458;DHT22;32155;54.076;12.092;2022-10-26T20:38:58;13.60;99.90
46458;DHT22;32155;54.076;12.092;2022-10-26T20:41:23;13.70;99.90
46458;DHT22;32155;54.076;12.092;2022-10-26T20:43:49;13.70;99.90
46458;DHT22;32155;54.076;12.092;2022-10-26T20:46:22;13.70;99.90
46458;DHT22;32155;54.076;12.092;2022-10-26T20:48:49;13.60;99.90
46458;DHT22;32155;54.076;12.092;2022-10-26T20:51:19;13.60;99.90
46458;DHT22;32155;54.076;12.092;2022-10-26T20:56:27;13.70;99.90
46458;DHT22;32155;54.076;12.092;2022-10-26T20:58:53;13.60;99.90
46458;DHT22;32155;54.076;12.092;2022-10-26T21:01:24;13.60;99.90
46458;DHT22;32155;54.076;12.092;2022-10-26T21:03:54;13.60;99.90
46458;DHT22;32155;54.076;12.092;2022-10-26T21:06:20;13.50;99.90
46458;DHT22;32155;54.076;12.092;2022-10-26T21:08:49;13.50;99.90
46458;DHT22;32155;54.076;12.092;2022-10-26T21:11:15;13.40;99.90
46458;DHT22;32155;54.076;12.092;2022-10-26T21:13:45;13.40;99.90
46458;DHT22;32155;54.076;12.092;2022-10-26T21:16:11;13.40;99.90
46458;DHT22;32155;54.076;12.092;2022-10-26T21:18:37;13.30;99.90
46458;DHT22;32155;54.076;12.092;2022-10-26T21:21:02;13.30;99.90
46458;DHT22;32155;54.076;12.092;2022-10-26T21:23:32;13.20;99.90
46458;DHT22;32155;54.076;12.092;2022-10-26T21:26:00;13.10;99.90
46458;DHT22;32155;54.076;12.092;2022-10-26T21:28:32;13.10;99.90
46458;DHT22;32155;54.076;12.092;2022-10-26T21:31:05;13.10;99.90
46458;DHT22;32155;54.076;12.092;2022-10-26T21:33:30;13.10;99.90
46458;DHT22;32155;54.076;12.092;2022-10-26T21:35:57;13.10;99.90
46458;DHT22;32155;54.076;12.092;2022-10-26T21:38:22;13.00;99.90
46458;DHT22;32155;54.076;12.092;2022-10-26T21:40:50;13.00;99.90
46458;DHT22;32155;54.076;12.092;2022-10-26T21:43:16;12.90;99.90
46458;DHT22;32155;54.076;12.092;2022-10-26T21:45:43;13.00;99.90
46458;DHT22;32155;54.076;12.092;2022-10-26T21:48:08;13.00;99.90
46458;DHT22;32155;54.076;12.092;2022-10-26T21:50:34;13.10;99.90
46458;DHT22;32155;54.076;12.092;2022-10-26T21:52:59;13.10;99.90
46458;DHT22;32155;54.076;12.092;2022-10-26T21:55:25;13.10;99.90
46458;DHT22;32155;54.076;12.092;2022-10-26T21:57:51;13.10;99.90
46458;DHT22;32155;54.076;12.092;2022-10-26T22:00:16;13.10;99.90
46458;DHT22;32155;54.076;12.092;2022-10-26T22:02:42;13.20;99.90
46458;DHT22;32155;54.076;12.092;2022-10-26T22:05:07;13.20;99.90
46458;DHT22;32155;54.076;12.092;2022-10-26T22:07:33;13.20;99.90
46458;DHT22;32155;54.076;12.092;2022-10-26T22:09:58;13.20;99.90
46458;DHT22;32155;54.076;12.092;2022-10-26T22:12:24;13.20;99.90
46458;DHT22;32155;54.076;12.092;2022-10-26T22:14:49;13.10;99.90
46458;DHT22;32155;54.076;12.092;2022-10-26T22:17:15;13.00;99.90
46458;DHT22;32155;54.076;12.092;2022-10-26T22:19:40;13.00;99.90
46458;DHT22;32155;54.076;12.092;2022-10-26T22:22:06;12.90;99.90
46458;DHT22;32155;54.076;12.092;2022-10-26T22:24:31;12.90;99.90
46458;DHT22;32155;54.076;12.092;2022-10-26T22:26:59;12.90;99.90
46458;DHT22;32155;54.076;12.092;2022-10-26T22:29:27;12.90;99.90
46458;DHT22;32155;54.076;12.092;2022-10-26T22:31:52;12.70;99.90
46458;DHT22;32155;54.076;12.092;2022-10-26T22:34:18;12.90;99.90
46458;DHT22;32155;54.076;12.092;2022-10-26T22:36:43;12.80;99.90
46458;DHT22;32155;54.076;12.092;2022-10-26T22:39:11;12.90;99.90
46458;DHT22;32155;54.076;12.092;2022-10-26T22:41:41;12.90;99.90
46458;DHT22;32155;54.076;12.092;2022-10-26T22:44:07;12.90;99.90
46458;DHT22;32155;54.076;12.092;2022-10-26T22:46:33;12.90;99.90
46458;DHT22;32155;54.076;12.092;2022-10-26T22:48:59;12.90;99.90
46458;DHT22;32155;54.076;12.092;2022-10-26T22:51:26;13.00;99.90
46458;DHT22;32155;54.076;12.092;2022-10-26T22:53:55;13.10;99.90
46458;DHT22;32155;54.076;12.092;2022-10-26T22:56:21;13.00;99.90
46458;DHT22;32155;54.076;12.092;2022-10-26T22:58:47;12.90;99.90
46458;DHT22;32155;54.076;12.092;2022-10-26T23:01:14;13.00;99.90
46458;DHT22;32155;54.076;12.092;2022-10-26T23:03:42;13.00;99.90
46458;DHT22;32155;54.076;12.092;2022-10-26T23:06:09;13.10;99.90
46458;DHT22;32155;54.076;12.092;2022-10-26T23:08:35;13.00;99.90
46458;DHT22;32155;54.076;12.092;2022-10-26T23:11:01;13.00;99.90
46458;DHT22;32155;54.076;12.092;2022-10-26T23:13:27;13.10;99.90
46458;DHT22;32155;54.076;12.092;2022-10-26T23:15:53;13.00;99.90
46458;DHT22;32155;54.076;12.092;2022-10-26T23:18:18;13.00;99.90
46458;DHT22;32155;54.076;12.092;2022-10-26T23:20:47;12.90;99.90
46458;DHT22;32155;54.076;12.092;2022-10-26T23:23:13;12.90;99.90
46458;DHT22;32155;54.076;12.092;2022-10-26T23:25:38;12.80;99.90
46458;DHT22;32155;54.076;12.092;2022-10-26T23:28:04;12.70;99.90
46458;DHT22;32155;54.076;12.092;2022-10-26T23:30:29;12.70;99.90
46458;DHT22;32155;54.076;12.092;2022-10-26T23:32:54;12.80;99.90
46458;DHT22;32155;54.076;12.092;2022-10-26T23:35:20;12.70;99.90
46458;DHT22;32155;54.076;12.092;2022-10-26T23:37:46;12.60;99.90
46458;DHT22;32155;54.076;12.092;2022-10-26T23:40:11;12.70;99.90
46458;DHT22;32155;54.076;12.092;2022-10-26T23:42:37;12.60;99.90
46458;DHT22;32155;54.076;12.092;2022-10-26T23:45:02;12.50;99.90
46458;DHT22;32155;54.076;12.092;2022-10-26T23:47:28;12.50;99.90
46458;DHT22;32155;54.076;12.092;2022-10-26T23:49:53;12.40;99.90
46458;DHT22;32155;54.076;12.092;2022-10-26T23:52:19;12.40;99.90
46458;DHT22;32155;54.076;12.092;2022-10-26T23:54:44;12.40;99.90
46458;DHT22;32155;54.076;12.092;2022-10-26T23:57:09;12.30;99.90
46458;DHT22;32155;54.076;12.092;2022-10-26T23:59:35;12.30;99.90
